createdAt,value
2023-03-24T00:05:43.568Z,4.30
2023-03-24T00:09:43.164Z,3.80
2023-03-24T00:14:12.460Z,3.80
2023-03-24T00:18:43.327Z,3.80
2023-03-24T00:23:12.177Z,4.30
2023-03-24T00:39:48.816Z,4.50
2023-03-24T00:44:10.804Z,4.70
2023-03-24T00:48:40.956Z,4.00
2023-03-24T01:15:31.510Z,4.50
2023-03-24T01:20:00.882Z,4.60
2023-03-24T01:24:30.296Z,4.10
2023-03-24T01:28:40.899Z,4.20
2023-03-24T01:32:43.375Z,4.30
2023-03-24T01:54:23.859Z,4.70
2023-03-24T01:58:28.537Z,3.90
2023-03-24T02:02:56.265Z,4.40
2023-03-24T02:34:43.827Z,5.20
2023-03-24T02:39:24.139Z,4.70
2023-03-24T02:57:02.591Z,4.90
2023-03-24T03:01:44.148Z,3.90
2023-03-24T03:06:30.655Z,4.60
2023-03-24T03:19:49.131Z,4.60
2023-03-24T03:24:20.100Z,5.00
2023-03-24T03:28:39.978Z,3.90
2023-03-24T03:32:57.973Z,4.30
2023-03-24T03:37:36.066Z,4.30
2023-03-24T03:41:54.824Z,4.10
2023-03-24T04:03:27.210Z,4.60
2023-03-24T04:08:04.299Z,4.30
2023-03-24T04:12:32.079Z,4.40
2023-03-24T04:34:56.466Z,4.30
2023-03-24T04:39:21.451Z,4.30
2023-03-24T04:43:39.523Z,2.90
2023-03-24T04:48:09.696Z,3.30
2023-03-24T04:52:32.819Z,3.10
2023-03-24T05:13:28.660Z,4.10
2023-03-24T05:17:57.906Z,3.20
2023-03-24T05:22:04.649Z,3.00
2023-03-24T05:25:51.097Z,3.00
2023-03-24T05:29:10.154Z,3.20
2023-03-24T05:32:24.314Z,2.70
2023-03-24T05:36:13.706Z,3.00
2023-03-24T07:05:55.126Z,3.40
2023-03-24T07:22:34.652Z,3.30
2023-03-24T07:27:02.505Z,3.90
2023-03-24T08:04:02.934Z,3.40
2023-03-24T08:08:31.351Z,3.40
2023-03-24T08:12:26.613Z,3.40
2023-03-24T08:16:46.504Z,3.20
2023-03-24T08:21:06.633Z,3.50
2023-03-24T10:00:19.596Z,3.50
2023-03-24T10:04:48.916Z,3.10
2023-03-24T10:09:36.137Z,3.50
2023-03-24T10:13:57.780Z,3.20
2023-03-24T10:18:51.347Z,3.80
2023-03-24T10:23:13.282Z,3.70
2023-03-24T10:27:43.860Z,3.50
2023-03-24T10:31:52.092Z,3.80
2023-03-24T10:36:35.988Z,3.60
2023-03-24T10:41:08.162Z,3.40
2023-03-24T11:19:08.293Z,3.40
2023-03-24T11:23:37.674Z,3.30
2023-03-24T11:27:56.734Z,3.30
2023-03-24T11:32:35.606Z,3.90
2023-03-24T11:36:49.734Z,3.10
2023-03-24T12:35:29.421Z,1.40
2023-03-24T12:39:50.824Z,1.20
2023-03-24T12:44:10.380Z,1.40
2023-03-24T12:48:36.473Z,1.20
2023-03-24T12:57:13.231Z,0.90
2023-03-24T13:30:21.450Z,1.20
2023-03-24T14:08:32.993Z,1.10
2023-03-24T14:12:27.394Z,1.10
2023-03-24T14:20:55.824Z,1.30
2023-03-24T14:25:24.960Z,0.90
2023-03-24T14:29:50.138Z,1.10
2023-03-24T14:33:40.473Z,1.30
2023-03-24T14:37:49.009Z,0.90
2023-03-24T14:46:51.294Z,1.00
2023-03-24T14:51:03.850Z,1.50
2023-03-24T14:55:39.215Z,0.90
2023-03-24T14:59:57.135Z,1.30
2023-03-24T15:04:24.765Z,0.80
2023-03-24T15:29:36.423Z,1.20
2023-03-24T15:33:49.908Z,1.20
2023-03-24T15:38:10.512Z,1.40
2023-03-24T15:42:13.734Z,1.30
2023-03-24T15:46:12.968Z,1.30
2023-03-24T15:50:24.498Z,1.30
2023-03-24T15:54:37.728Z,0.90
2023-03-24T15:58:54.715Z,1.10
2023-03-24T18:06:06.470Z,2.40
2023-03-24T18:10:35.671Z,2.30
2023-03-24T18:14:40.329Z,1.70
2023-03-24T18:19:09.040Z,1.80
2023-03-24T18:23:26.815Z,1.30
2023-03-24T18:49:30.101Z,3.60
2023-03-24T18:54:01.189Z,2.70
2023-03-24T18:58:11.066Z,2.50
2023-03-24T19:02:29.810Z,2.00
2023-03-24T19:07:00.452Z,2.40
2023-03-24T19:28:48.847Z,3.10
2023-03-24T19:33:10.262Z,3.70
2023-03-24T19:37:25.562Z,3.90
2023-03-24T19:41:39.378Z,4.50
2023-03-24T20:05:55.183Z,4.30
2023-03-24T20:10:14.938Z,2.90
2023-03-24T20:14:01.626Z,2.70
2023-03-24T20:18:23.237Z,3.30
2023-03-24T20:22:39.839Z,3.10
2023-03-24T20:27:04.036Z,3.30
2023-03-24T20:30:49.404Z,5.10
2023-03-24T22:01:15.884Z,4.10
2023-03-24T22:05:44.718Z,4.10
2023-03-24T22:10:06.559Z,4.50
2023-03-24T22:14:24.060Z,4.10
2023-03-24T22:18:53.390Z,3.30
2023-03-24T22:53:30.563Z,3.60
2023-03-24T22:57:59.980Z,3.70
2023-03-24T23:02:29.890Z,3.40
2023-03-24T23:34:01.710Z,3.00
2023-03-24T23:38:31.830Z,3.60
